sensor_id;sensor_type;location;lat;lon;timestamp;temperature;humidity
30063;DHT22;16889;67.864;24.990;2022-10-16T00:02:57;8.00;99.90
30063;DHT22;16889;67.864;24.990;2022-10-16T00:07:43;8.00;99.90
30063;DHT22;16889;67.864;24.990;2022-10-16T00:12:29;8.00;99.90
30063;DHT22;16889;67.864;24.990;2022-10-16T00:17:15;8.00;99.90
30063;DHT22;16889;67.864;24.990;2022-10-16T00:22:00;8.10;99.90
30063;DHT22;16889;67.864;24.990;2022-10-16T00:26:49;8.10;99.90
30063;DHT22;16889;67.864;24.990;2022-10-16T00:31:36;8.00;99.90
30063;DHT22;16889;67.864;24.990;2022-10-16T00:36:24;8.10;99.90
30063;DHT22;16889;67.864;24.990;2022-10-16T00:41:14;8.10;99.90
30063;DHT22;16889;67.864;24.990;2022-10-16T00:46:01;8.20;99.90
30063;DHT22;16889;67.864;24.990;2022-10-16T00:50:48;8.10;99.90
30063;DHT22;16889;67.864;24.990;2022-10-16T00:55:34;8.10;99.90
30063;DHT22;16889;67.864;24.990;2022-10-16T01:00:24;8.10;99.90
30063;DHT22;16889;67.864;24.990;2022-10-16T01:05:10;8.00;99.90
30063;DHT22;16889;67.864;24.990;2022-10-16T01:20:11;8.00;99.90
30063;DHT22;16889;67.864;24.990;2022-10-16T01:25:01;8.00;99.90
30063;DHT22;16889;67.864;24.990;2022-10-16T01:30:02;8.00;99.90
30063;DHT22;16889;67.864;24.990;2022-10-16T01:35:09;7.90;99.90
30063;DHT22;16889;67.864;24.990;2022-10-16T01:40:00;7.90;99.90
30063;DHT22;16889;67.864;24.990;2022-10-16T01:44:50;8.00;99.90
30063;DHT22;16889;67.864;24.990;2022-10-16T01:49:41;8.00;99.90
30063;DHT22;16889;67.864;24.990;2022-10-16T01:54:31;8.00;99.90
30063;DHT22;16889;67.864;24.990;2022-10-16T01:59:21;8.10;99.90
30063;DHT22;16889;67.864;24.990;2022-10-16T02:04:25;8.10;99.90
30063;DHT22;16889;67.864;24.990;2022-10-16T02:09:12;8.20;99.90
30063;DHT22;16889;67.864;24.990;2022-10-16T02:14:02;8.10;99.90
30063;DHT22;16889;67.864;24.990;2022-10-16T02:18:49;8.10;99.90
30063;DHT22;16889;67.864;24.990;2022-10-16T02:23:54;8.10;99.90
30063;DHT22;16889;67.864;24.990;2022-10-16T02:28:53;8.00;99.90
30063;DHT22;16889;67.864;24.990;2022-10-16T02:33:44;7.90;99.90
30063;DHT22;16889;67.864;24.990;2022-10-16T02:38:32;7.80;99.90
30063;DHT22;16889;67.864;24.990;2022-10-16T02:43:21;7.80;99.90
30063;DHT22;16889;67.864;24.990;2022-10-16T02:48:08;7.70;99.90
30063;DHT22;16889;67.864;24.990;2022-10-16T02:52:54;7.80;99.90
30063;DHT22;16889;67.864;24.990;2022-10-16T02:57:43;7.80;99.90
30063;DHT22;16889;67.864;24.990;2022-10-16T03:02:29;7.70;99.90
30063;DHT22;16889;67.864;24.990;2022-10-16T03:07:16;7.60;99.90
30063;DHT22;16889;67.864;24.990;2022-10-16T03:12:02;7.60;99.90
30063;DHT22;16889;67.864;24.990;2022-10-16T03:16:48;7.60;99.90
30063;DHT22;16889;67.864;24.990;2022-10-16T03:21:37;7.70;99.90
30063;DHT22;16889;67.864;24.990;2022-10-16T03:26:23;7.60;99.90
30063;DHT22;16889;67.864;24.990;2022-10-16T03:31:09;7.60;99.90
30063;DHT22;16889;67.864;24.990;2022-10-16T03:35:55;7.60;99.90
30063;DHT22;16889;67.864;24.990;2022-10-16T03:40:41;7.60;99.90
30063;DHT22;16889;67.864;24.990;2022-10-16T03:45:27;7.60;99.90
30063;DHT22;16889;67.864;24.990;2022-10-16T03:50:14;7.60;99.90
30063;DHT22;16889;67.864;24.990;2022-10-16T03:55:00;7.60;99.90
30063;DHT22;16889;67.864;24.990;2022-10-16T03:59:46;7.60;99.90
30063;DHT22;16889;67.864;24.990;2022-10-16T04:04:32;7.60;99.90
30063;DHT22;16889;67.864;24.990;2022-10-16T04:09:20;7.60;99.90
30063;DHT22;16889;67.864;24.990;2022-10-16T04:14:06;7.50;99.90
30063;DHT22;16889;67.864;24.990;2022-10-16T04:18:52;7.60;99.90
30063;DHT22;16889;67.864;24.990;2022-10-16T04:23:38;7.60;99.90
30063;DHT22;16889;67.864;24.990;2022-10-16T04:28:24;7.50;99.90
30063;DHT22;16889;67.864;24.990;2022-10-16T04:33:10;7.40;99.90
30063;DHT22;16889;67.864;24.990;2022-10-16T04:37:59;7.40;99.90
30063;DHT22;16889;67.864;24.990;2022-10-16T04:42:45;7.60;99.90
30063;DHT22;16889;67.864;24.990;2022-10-16T04:47:31;7.60;99.90
30063;DHT22;16889;67.864;24.990;2022-10-16T04:52:17;7.50;99.90
30063;DHT22;16889;67.864;24.990;2022-10-16T04:57:04;7.50;99.90
30063;DHT22;16889;67.864;24.990;2022-10-16T05:01:51;7.60;99.90
30063;DHT22;16889;67.864;24.990;2022-10-16T05:06:37;7.50;99.90
30063;DHT22;16889;67.864;24.990;2022-10-16T05:11:24;7.50;99.90
30063;DHT22;16889;67.864;24.990;2022-10-16T05:16:10;7.40;99.90
30063;DHT22;16889;67.864;24.990;2022-10-16T05:20:56;7.40;99.90
30063;DHT22;16889;67.864;24.990;2022-10-16T05:25:42;7.40;99.90
30063;DHT22;16889;67.864;24.990;2022-10-16T05:30:28;7.50;99.90
30063;DHT22;16889;67.864;24.990;2022-10-16T05:35:15;7.40;99.90
30063;DHT22;16889;67.864;24.990;2022-10-16T05:40:01;7.40;99.90
30063;DHT22;16889;67.864;24.990;2022-10-16T05:44:48;7.40;99.90
30063;DHT22;16889;67.864;24.990;2022-10-16T05:49:34;7.40;99.90
30063;DHT22;16889;67.864;24.990;2022-10-16T05:54:20;7.50;99.90
30063;DHT22;16889;67.864;24.990;2022-10-16T05:59:06;7.60;99.90
30063;DHT22;16889;67.864;24.990;2022-10-16T06:03:52;7.50;99.90
30063;DHT22;16889;67.864;24.990;2022-10-16T06:08:40;7.50;99.90
30063;DHT22;16889;67.864;24.990;2022-10-16T06:13:26;7.60;99.90
30063;DHT22;16889;67.864;24.990;2022-10-16T06:18:12;7.60;99.90
30063;DHT22;16889;67.864;24.990;2022-10-16T06:22:58;7.60;99.90
30063;DHT22;16889;67.864;24.990;2022-10-16T06:27:44;7.60;99.90
30063;DHT22;16889;67.864;24.990;2022-10-16T06:32:30;7.50;99.90
30063;DHT22;16889;67.864;24.990;2022-10-16T06:37:15;7.50;99.90
30063;DHT22;16889;67.864;24.990;2022-10-16T06:42:01;7.60;99.90
30063;DHT22;16889;67.864;24.990;2022-10-16T06:46:47;7.60;99.90
30063;DHT22;16889;67.864;24.990;2022-10-16T06:51:33;7.50;99.90
30063;DHT22;16889;67.864;24.990;2022-10-16T06:56:22;7.50;99.90
30063;DHT22;16889;67.864;24.990;2022-10-16T07:01:09;7.50;99.90
30063;DHT22;16889;67.864;24.990;2022-10-16T07:05:55;7.60;99.90
30063;DHT22;16889;67.864;24.990;2022-10-16T07:10:41;7.60;99.90
30063;DHT22;16889;67.864;24.990;2022-10-16T07:15:28;7.70;99.90
30063;DHT22;16889;67.864;24.990;2022-10-16T07:20:14;7.70;99.90
30063;DHT22;16889;67.864;24.990;2022-10-16T07:25:00;7.70;99.90
30063;DHT22;16889;67.864;24.990;2022-10-16T07:29:46;7.80;99.90
30063;DHT22;16889;67.864;24.990;2022-10-16T07:34:31;7.80;99.90
30063;DHT22;16889;67.864;24.990;2022-10-16T07:39:18;7.90;99.90
30063;DHT22;16889;67.864;24.990;2022-10-16T07:44:04;7.90;99.90
30063;DHT22;16889;67.864;24.990;2022-10-16T07:48:50;7.90;99.90
30063;DHT22;16889;67.864;24.990;2022-10-16T07:53:36;7.90;99.90
30063;DHT22;16889;67.864;24.990;2022-10-16T07:58:22;7.90;99.90
30063;DHT22;16889;67.864;24.990;2022-10-16T08:03:08;7.90;99.90
30063;DHT22;16889;67.864;24.990;2022-10-16T08:07:54;7.90;99.90
30063;DHT22;16889;67.864;24.990;2022-10-16T08:12:40;7.90;99.90
30063;DHT22;16889;67.864;24.990;2022-10-16T08:17:26;7.90;99.90
30063;DHT22;16889;67.864;24.990;2022-10-16T08:22:13;7.80;99.90
30063;DHT22;16889;67.864;24.990;2022-10-16T08:26:59;7.90;99.90
30063;DHT22;16889;67.864;24.990;2022-10-16T08:31:45;8.00;99.90
30063;DHT22;16889;67.864;24.990;2022-10-16T08:36:31;8.00;99.90
30063;DHT22;16889;67.864;24.990;2022-10-16T08:51:46;8.20;99.90
30063;DHT22;16889;67.864;24.990;2022-10-16T08:56:35;8.20;99.90
30063;DHT22;16889;67.864;24.990;2022-10-16T09:01:22;8.20;99.90
30063;DHT22;16889;67.864;24.990;2022-10-16T09:11:33;8.50;99.90
30063;DHT22;16889;67.864;24.990;2022-10-16T09:21:23;8.70;99.90
30063;DHT22;16889;67.864;24.990;2022-10-16T09:26:12;8.60;99.90
30063;DHT22;16889;67.864;24.990;2022-10-16T09:30:58;8.50;99.90
30063;DHT22;16889;67.864;24.990;2022-10-16T09:35:50;8.70;99.90
30063;DHT22;16889;67.864;24.990;2022-10-16T09:40:38;8.80;99.90
30063;DHT22;16889;67.864;24.990;2022-10-16T09:45:24;8.80;99.90
30063;DHT22;16889;67.864;24.990;2022-10-16T09:55:15;8.80;99.90
30063;DHT22;16889;67.864;24.990;2022-10-16T10:00:08;8.70;99.90
30063;DHT22;16889;67.864;24.990;2022-10-16T10:04:54;8.60;99.90
30063;DHT22;16889;67.864;24.990;2022-10-16T10:09:44;8.40;99.90
30063;DHT22;16889;67.864;24.990;2022-10-16T10:14:35;8.30;99.90
30063;DHT22;16889;67.864;24.990;2022-10-16T10:19:23;8.20;99.90
30063;DHT22;16889;67.864;24.990;2022-10-16T10:24:19;8.40;99.90
30063;DHT22;16889;67.864;24.990;2022-10-16T10:29:19;8.50;99.90
30063;DHT22;16889;67.864;24.990;2022-10-16T10:34:52;8.50;99.90
30063;DHT22;16889;67.864;24.990;2022-10-16T10:39:54;8.50;99.90
30063;DHT22;16889;67.864;24.990;2022-10-16T10:44:57;8.60;99.90
30063;DHT22;16889;67.864;24.990;2022-10-16T10:55:15;8.50;99.90
30063;DHT22;16889;67.864;24.990;2022-10-16T11:00:27;8.40;99.90
30063;DHT22;16889;67.864;24.990;2022-10-16T11:05:33;8.30;99.90
30063;DHT22;16889;67.864;24.990;2022-10-16T11:10:29;8.20;99.90
30063;DHT22;16889;67.864;24.990;2022-10-16T11:15:32;8.10;99.90
30063;DHT22;16889;67.864;24.990;2022-10-16T11:20:24;8.10;99.90
30063;DHT22;16889;67.864;24.990;2022-10-16T11:25:31;8.20;99.90
30063;DHT22;16889;67.864;24.990;2022-10-16T11:30:28;8.10;99.90
30063;DHT22;16889;67.864;24.990;2022-10-16T11:35:17;8.20;99.90
30063;DHT22;16889;67.864;24.990;2022-10-16T11:40:19;8.30;99.90
30063;DHT22;16889;67.864;24.990;2022-10-16T11:45:42;8.50;99.90
30063;DHT22;16889;67.864;24.990;2022-10-16T11:50:40;8.30;99.90
30063;DHT22;16889;67.864;24.990;2022-10-16T11:55:43;8.20;99.90
30063;DHT22;16889;67.864;24.990;2022-10-16T12:05:50;7.90;99.90
30063;DHT22;16889;67.864;24.990;2022-10-16T12:10:40;7.70;99.90
30063;DHT22;16889;67.864;24.990;2022-10-16T12:15:30;7.60;99.90
30063;DHT22;16889;67.864;24.990;2022-10-16T12:20:22;7.40;99.90
30063;DHT22;16889;67.864;24.990;2022-10-16T12:25:33;7.20;99.90
30063;DHT22;16889;67.864;24.990;2022-10-16T12:30:23;7.20;99.90
30063;DHT22;16889;67.864;24.990;2022-10-16T12:35:21;7.30;99.90
30063;DHT22;16889;67.864;24.990;2022-10-16T12:40:15;7.40;99.90
30063;DHT22;16889;67.864;24.990;2022-10-16T12:45:34;7.40;99.90
30063;DHT22;16889;67.864;24.990;2022-10-16T12:50:35;7.50;99.90
30063;DHT22;16889;67.864;24.990;2022-10-16T12:55:23;7.50;99.90
30063;DHT22;16889;67.864;24.990;2022-10-16T13:00:25;7.60;99.90
30063;DHT22;16889;67.864;24.990;2022-10-16T13:16:18;7.70;99.90
30063;DHT22;16889;67.864;24.990;2022-10-16T13:21:19;7.70;99.90
30063;DHT22;16889;67.864;24.990;2022-10-16T13:26:22;7.60;99.90
30063;DHT22;16889;67.864;24.990;2022-10-16T13:31:19;7.50;99.90
30063;DHT22;16889;67.864;24.990;2022-10-16T13:36:06;7.60;99.90
30063;DHT22;16889;67.864;24.990;2022-10-16T13:40:57;7.40;99.90
30063;DHT22;16889;67.864;24.990;2022-10-16T13:46:06;7.30;99.90
30063;DHT22;16889;67.864;24.990;2022-10-16T13:51:18;7.40;99.90
30063;DHT22;16889;67.864;24.990;2022-10-16T13:56:07;7.40;99.90
30063;DHT22;16889;67.864;24.990;2022-10-16T14:00:57;7.40;99.90
30063;DHT22;16889;67.864;24.990;2022-10-16T14:10:34;7.20;99.90
30063;DHT22;16889;67.864;24.990;2022-10-16T14:15:20;7.30;99.90
30063;DHT22;16889;67.864;24.990;2022-10-16T14:20:13;7.20;99.90
30063;DHT22;16889;67.864;24.990;2022-10-16T14:25:13;7.20;99.90
30063;DHT22;16889;67.864;24.990;2022-10-16T14:30:16;7.10;99.90
30063;DHT22;16889;67.864;24.990;2022-10-16T14:35:02;7.00;99.90
30063;DHT22;16889;67.864;24.990;2022-10-16T14:39:52;7.00;99.90
30063;DHT22;16889;67.864;24.990;2022-10-16T14:44:40;7.10;99.90
30063;DHT22;16889;67.864;24.990;2022-10-16T14:49:26;7.00;99.90
30063;DHT22;16889;67.864;24.990;2022-10-16T14:54:18;7.00;99.90
30063;DHT22;16889;67.864;24.990;2022-10-16T14:59:04;6.90;99.90
30063;DHT22;16889;67.864;24.990;2022-10-16T15:03:50;6.80;99.90
30063;DHT22;16889;67.864;24.990;2022-10-16T15:08:38;6.80;99.90
30063;DHT22;16889;67.864;24.990;2022-10-16T15:13:24;6.80;99.90
30063;DHT22;16889;67.864;24.990;2022-10-16T15:18:11;6.90;99.90
30063;DHT22;16889;67.864;24.990;2022-10-16T15:22:57;6.90;99.90
30063;DHT22;16889;67.864;24.990;2022-10-16T15:27:43;6.90;99.90
30063;DHT22;16889;67.864;24.990;2022-10-16T15:32:29;6.60;99.90
30063;DHT22;16889;67.864;24.990;2022-10-16T15:37:15;6.60;99.90
30063;DHT22;16889;67.864;24.990;2022-10-16T15:42:01;6.60;99.90
30063;DHT22;16889;67.864;24.990;2022-10-16T15:46:47;6.60;99.90
30063;DHT22;16889;67.864;24.990;2022-10-16T15:51:33;6.60;99.90
30063;DHT22;16889;67.864;24.990;2022-10-16T15:56:19;6.50;99.90
30063;DHT22;16889;67.864;24.990;2022-10-16T16:01:05;6.50;99.90
30063;DHT22;16889;67.864;24.990;2022-10-16T16:05:52;6.40;99.90
30063;DHT22;16889;67.864;24.990;2022-10-16T16:10:38;6.40;99.90
30063;DHT22;16889;67.864;24.990;2022-10-16T16:15:24;6.50;99.90
30063;DHT22;16889;67.864;24.990;2022-10-16T16:20:10;6.40;99.90
30063;DHT22;16889;67.864;24.990;2022-10-16T16:24:56;6.40;99.90
30063;DHT22;16889;67.864;24.990;2022-10-16T16:29:43;6.50;99.90
30063;DHT22;16889;67.864;24.990;2022-10-16T16:34:29;6.50;99.90
30063;DHT22;16889;67.864;24.990;2022-10-16T16:39:15;6.40;99.90
30063;DHT22;16889;67.864;24.990;2022-10-16T16:44:03;6.30;99.90
30063;DHT22;16889;67.864;24.990;2022-10-16T16:48:49;6.20;99.90
30063;DHT22;16889;67.864;24.990;2022-10-16T16:53:44;6.20;99.90
30063;DHT22;16889;67.864;24.990;2022-10-16T16:58:31;6.10;99.90
30063;DHT22;16889;67.864;24.990;2022-10-16T17:03:17;5.90;99.90
30063;DHT22;16889;67.864;24.990;2022-10-16T17:08:06;6.10;99.90
30063;DHT22;16889;67.864;24.990;2022-10-16T17:12:53;6.10;99.90
30063;DHT22;16889;67.864;24.990;2022-10-16T17:17:39;6.10;99.90
30063;DHT22;16889;67.864;24.990;2022-10-16T17:22:25;6.10;99.90
30063;DHT22;16889;67.864;24.990;2022-10-16T17:27:11;6.10;99.90
30063;DHT22;16889;67.864;24.990;2022-10-16T17:31:57;6.10;99.90
30063;DHT22;16889;67.864;24.990;2022-10-16T17:36:44;6.00;99.90
30063;DHT22;16889;67.864;24.990;2022-10-16T17:41:32;6.00;99.90
30063;DHT22;16889;67.864;24.990;2022-10-16T17:46:20;5.90;99.90
30063;DHT22;16889;67.864;24.990;2022-10-16T17:51:08;5.70;99.90
30063;DHT22;16889;67.864;24.990;2022-10-16T17:55:55;5.90;99.90
30063;DHT22;16889;67.864;24.990;2022-10-16T18:00:43;5.80;99.90
30063;DHT22;16889;67.864;24.990;2022-10-16T18:05:29;5.70;99.90
30063;DHT22;16889;67.864;24.990;2022-10-16T18:10:15;5.60;99.90
30063;DHT22;16889;67.864;24.990;2022-10-16T18:15:02;5.90;99.90
30063;DHT22;16889;67.864;24.990;2022-10-16T18:19:48;5.90;99.90
30063;DHT22;16889;67.864;24.990;2022-10-16T18:24:34;5.80;99.90
30063;DHT22;16889;67.864;24.990;2022-10-16T18:29:22;5.60;99.90
30063;DHT22;16889;67.864;24.990;2022-10-16T18:34:09;5.60;99.90
30063;DHT22;16889;67.864;24.990;2022-10-16T18:38:55;5.90;99.90
30063;DHT22;16889;67.864;24.990;2022-10-16T18:43:41;5.70;99.90
30063;DHT22;16889;67.864;24.990;2022-10-16T18:48:29;5.70;99.90
30063;DHT22;16889;67.864;24.990;2022-10-16T18:53:15;5.90;99.90
30063;DHT22;16889;67.864;24.990;2022-10-16T18:58:01;5.90;99.90
30063;DHT22;16889;67.864;24.990;2022-10-16T19:02:47;5.90;99.90
30063;DHT22;16889;67.864;24.990;2022-10-16T19:07:33;5.90;99.90
30063;DHT22;16889;67.864;24.990;2022-10-16T19:12:19;5.80;99.90
30063;DHT22;16889;67.864;24.990;2022-10-16T19:17:05;5.60;99.90
30063;DHT22;16889;67.864;24.990;2022-10-16T19:21:51;5.50;99.90
30063;DHT22;16889;67.864;24.990;2022-10-16T19:26:42;5.50;99.90
30063;DHT22;16889;67.864;24.990;2022-10-16T19:31:29;5.70;99.90
30063;DHT22;16889;67.864;24.990;2022-10-16T19:36:21;5.70;99.90
30063;DHT22;16889;67.864;24.990;2022-10-16T19:41:12;5.70;99.90
30063;DHT22;16889;67.864;24.990;2022-10-16T19:46:06;5.80;99.90
30063;DHT22;16889;67.864;24.990;2022-10-16T19:50:52;5.80;99.90
30063;DHT22;16889;67.864;24.990;2022-10-16T19:55:38;5.90;99.90
30063;DHT22;16889;67.864;24.990;2022-10-16T20:00:24;5.70;99.90
30063;DHT22;16889;67.864;24.990;2022-10-16T20:05:10;5.60;99.90
30063;DHT22;16889;67.864;24.990;2022-10-16T20:09:56;5.60;99.90
30063;DHT22;16889;67.864;24.990;2022-10-16T20:14:42;5.60;99.90
30063;DHT22;16889;67.864;24.990;2022-10-16T20:19:28;5.70;99.90
30063;DHT22;16889;67.864;24.990;2022-10-16T20:24:14;5.70;99.90
30063;DHT22;16889;67.864;24.990;2022-10-16T20:29:01;5.80;99.90
30063;DHT22;16889;67.864;24.990;2022-10-16T20:33:49;5.80;99.90
30063;DHT22;16889;67.864;24.990;2022-10-16T20:38:36;5.90;99.90
30063;DHT22;16889;67.864;24.990;2022-10-16T20:43:22;5.90;99.90
30063;DHT22;16889;67.864;24.990;2022-10-16T20:48:09;5.90;99.90
30063;DHT22;16889;67.864;24.990;2022-10-16T20:52:59;5.90;99.90
30063;DHT22;16889;67.864;24.990;2022-10-16T20:57:45;5.90;99.90
30063;DHT22;16889;67.864;24.990;2022-10-16T21:02:31;5.90;99.90
30063;DHT22;16889;67.864;24.990;2022-10-16T21:07:17;5.80;99.90
30063;DHT22;16889;67.864;24.990;2022-10-16T21:12:03;5.80;99.90
30063;DHT22;16889;67.864;24.990;2022-10-16T21:16:49;5.90;99.90
30063;DHT22;16889;67.864;24.990;2022-10-16T21:21:36;5.90;99.90
30063;DHT22;16889;67.864;24.990;2022-10-16T21:26:23;5.90;99.90
30063;DHT22;16889;67.864;24.990;2022-10-16T21:31:18;5.80;99.90
30063;DHT22;16889;67.864;24.990;2022-10-16T21:36:14;5.80;99.90
30063;DHT22;16889;67.864;24.990;2022-10-16T21:41:00;5.80;99.90
30063;DHT22;16889;67.864;24.990;2022-10-16T21:45:46;5.80;99.90
30063;DHT22;16889;67.864;24.990;2022-10-16T21:50:32;5.90;99.90
30063;DHT22;16889;67.864;24.990;2022-10-16T21:55:18;5.90;99.90
30063;DHT22;16889;67.864;24.990;2022-10-16T22:00:05;5.90;99.90
30063;DHT22;16889;67.864;24.990;2022-10-16T22:04:51;5.90;99.90
30063;DHT22;16889;67.864;24.990;2022-10-16T22:09:37;5.90;99.90
30063;DHT22;16889;67.864;24.990;2022-10-16T22:14:23;5.90;99.90
30063;DHT22;16889;67.864;24.990;2022-10-16T22:19:11;5.90;99.90
30063;DHT22;16889;67.864;24.990;2022-10-16T22:23:58;5.90;99.90
30063;DHT22;16889;67.864;24.990;2022-10-16T22:28:44;5.90;99.90
30063;DHT22;16889;67.864;24.990;2022-10-16T22:33:30;5.90;99.90
30063;DHT22;16889;67.864;24.990;2022-10-16T22:38:16;5.90;99.90
30063;DHT22;16889;67.864;24.990;2022-10-16T22:43:02;6.00;99.90
30063;DHT22;16889;67.864;24.990;2022-10-16T22:47:48;6.00;99.90
30063;DHT22;16889;67.864;24.990;2022-10-16T22:52:34;6.00;99.90
30063;DHT22;16889;67.864;24.990;2022-10-16T22:57:22;5.90;99.90
30063;DHT22;16889;67.864;24.990;2022-10-16T23:02:08;5.90;99.90
30063;DHT22;16889;67.864;24.990;2022-10-16T23:06:54;5.90;99.90
30063;DHT22;16889;67.864;24.990;2022-10-16T23:11:40;5.80;99.90
30063;DHT22;16889;67.864;24.990;2022-10-16T23:16:26;5.90;99.90
30063;DHT22;16889;67.864;24.990;2022-10-16T23:21:21;5.80;99.90
30063;DHT22;16889;67.864;24.990;2022-10-16T23:26:15;5.70;99.90
30063;DHT22;16889;67.864;24.990;2022-10-16T23:31:06;5.70;99.90
30063;DHT22;16889;67.864;24.990;2022-10-16T23:35:52;5.60;99.90
30063;DHT22;16889;67.864;24.990;2022-10-16T23:40:38;5.60;99.90
30063;DHT22;16889;67.864;24.990;2022-10-16T23:45:24;5.40;99.90
30063;DHT22;16889;67.864;24.990;2022-10-16T23:50:10;5.40;99.90
30063;DHT22;16889;67.864;24.990;2022-10-16T23:54:56;5.40;99.90
30063;DHT22;16889;67.864;24.990;2022-10-16T23:59:42;5.30;99.90
